createdAt,value
2023-01-13T09:39:38.123Z,2.94
2023-01-13T09:42:10.818Z,2.94
2023-01-13T09:44:48.649Z,2.55
2023-01-13T09:46:56.485Z,2.96
2023-01-13T09:49:00.241Z,2.89
2023-01-13T09:51:14.520Z,3.16
2023-01-13T09:53:41.449Z,3.38
2023-01-13T09:55:45.391Z,3.38
2023-01-13T09:57:47.750Z,3.24
2023-01-13T09:59:50.782Z,3.33
2023-01-13T10:02:03.673Z,3.10
2023-01-13T10:04:15.180Z,3.15
2023-01-13T10:06:17.553Z,3.02
2023-01-13T10:08:26.012Z,3.01
2023-01-13T10:10:43.491Z,3.07
2023-01-13T10:13:06.305Z,3.22
2023-01-13T10:15:23.120Z,3.35
2023-01-13T10:17:56.531Z,3.08
2023-01-13T10:20:16.926Z,2.99
2023-01-13T10:22:31.376Z,3.04
2023-01-13T10:24:50.236Z,3.20
2023-01-13T10:27:18.814Z,3.12
2023-01-13T10:29:27.615Z,3.52
2023-01-13T10:31:30.237Z,3.58
2023-01-13T10:33:32.647Z,3.59
2023-01-13T10:36:09.038Z,3.62
2023-01-13T10:38:47.260Z,3.71
2023-01-13T10:40:53.292Z,3.62
2023-01-13T10:43:06.575Z,3.83
2023-01-13T10:45:24.396Z,4.03
2023-01-13T10:47:35.956Z,3.80
2023-01-13T10:49:39.099Z,3.82
2023-01-13T10:51:44.813Z,3.97
2023-01-13T10:53:51.931Z,4.04
2023-01-13T10:56:05.151Z,4.05
2023-01-13T10:58:19.617Z,3.72
2023-01-13T11:00:35.088Z,3.82
2023-01-13T11:02:38.773Z,4.01
2023-01-13T11:05:00.794Z,3.99
2023-01-13T11:07:06.261Z,4.05
2023-01-13T11:09:20.280Z,3.78
2023-01-13T11:11:38.762Z,3.82
2023-01-13T11:14:03.927Z,3.54
2023-01-13T11:16:18.149Z,3.76
2023-01-13T11:19:02.229Z,3.83
2023-01-13T11:21:17.493Z,3.65
2023-01-13T11:23:49.004Z,3.45
2023-01-13T11:25:56.962Z,3.64
2023-01-13T11:28:28.066Z,3.84
2023-01-13T11:31:09.324Z,3.82
2023-01-13T11:33:15.261Z,3.82
2023-01-13T11:35:20.668Z,3.96
2023-01-13T11:37:30.698Z,3.76
2023-01-13T11:39:47.732Z,3.63
2023-01-13T11:42:16.377Z,3.66
2023-01-13T11:44:31.735Z,3.79
2023-01-13T11:46:34.502Z,3.89
2023-01-13T11:48:41.335Z,3.68
2023-01-13T11:50:58.721Z,3.82
2023-01-13T11:53:12.304Z,3.73
2023-01-13T11:55:17.324Z,3.64
2023-01-13T11:57:38.812Z,3.55
2023-01-13T12:00:03.218Z,3.80
2023-01-13T12:02:52.326Z,3.82
2023-01-13T12:05:19.185Z,3.94
2023-01-13T12:07:44.608Z,4.09
2023-01-13T12:10:03.718Z,4.04
2023-01-13T12:12:44.279Z,3.89
2023-01-13T12:15:08.408Z,3.79
2023-01-13T12:17:26.333Z,3.86
2023-01-13T12:19:32.487Z,3.80
2023-01-13T12:21:41.047Z,3.87
2023-01-13T12:24:06.555Z,3.90
2023-01-13T12:26:16.591Z,4.00
2023-01-13T12:28:51.308Z,3.74
2023-01-13T12:31:01.336Z,3.55
2023-01-13T12:33:19.364Z,3.60
2023-01-13T12:35:41.720Z,3.58
2023-01-13T12:38:07.930Z,3.61
2023-01-13T12:40:16.728Z,3.78
2023-01-13T12:42:50.972Z,3.98
2023-01-13T12:45:12.311Z,3.83
2023-01-13T12:47:32.841Z,3.60
2023-01-13T12:49:36.349Z,3.54
2023-01-13T12:52:07.380Z,3.73
2023-01-13T12:54:37.597Z,3.97
2023-01-13T12:56:46.368Z,4.07
2023-01-13T12:58:48.756Z,4.27
2023-01-13T13:00:58.374Z,4.26
2023-01-13T13:03:13.973Z,4.30
2023-01-13T13:05:25.425Z,4.33
2023-01-13T13:07:30.884Z,4.47
2023-01-13T13:09:44.921Z,4.47
2023-01-13T13:11:58.129Z,4.39
2023-01-13T13:14:02.108Z,4.29
2023-01-13T13:16:29.463Z,4.12
2023-01-13T13:18:31.876Z,4.11
2023-01-13T13:20:56.407Z,4.17
2023-01-13T13:22:59.126Z,4.30
2023-01-13T13:25:04.452Z,4.35
2023-01-13T13:27:46.940Z,4.45
2023-01-13T13:30:00.216Z,4.45
2023-01-13T13:32:24.148Z,4.56
2023-01-13T13:34:51.652Z,4.57
2023-01-13T13:37:06.564Z,4.57
2023-01-13T13:39:27.383Z,4.65
2023-01-13T13:41:48.975Z,4.64
2023-01-13T13:44:10.324Z,4.75
2023-01-13T13:46:47.414Z,4.93
2023-01-13T13:48:55.360Z,4.98
2023-01-13T13:51:04.040Z,5.09
2023-01-13T13:53:08.658Z,5.43
2023-01-13T13:55:19.870Z,5.38
2023-01-13T13:57:50.006Z,5.32
2023-01-13T13:59:58.662Z,5.19
2023-01-13T14:02:03.965Z,5.02
2023-01-13T14:04:12.387Z,4.95
2023-01-13T14:06:23.693Z,5.05
2023-01-13T14:08:28.514Z,4.91
2023-01-13T14:10:35.254Z,4.91
2023-01-13T14:12:38.671Z,4.92
2023-01-13T14:14:44.669Z,5.02
2023-01-13T14:16:48.582Z,4.74
2023-01-13T14:18:51.079Z,4.91
2023-01-13T14:21:19.612Z,4.89
2023-01-13T14:23:30.666Z,4.95
2023-01-13T14:25:39.675Z,4.97
2023-01-13T14:27:43.470Z,4.95
2023-01-13T14:29:46.300Z,4.93
2023-01-13T14:31:53.746Z,5.15
2023-01-13T14:33:58.790Z,5.27
2023-01-13T14:36:05.495Z,5.36
2023-01-13T14:38:16.510Z,5.36
2023-01-13T14:40:44.635Z,5.19
2023-01-13T14:42:57.121Z,5.14
2023-01-13T14:44:59.600Z,5.30
2023-01-13T14:47:19.824Z,5.04
2023-01-13T14:49:36.094Z,4.87
2023-01-13T14:51:38.454Z,4.84
2023-01-13T14:53:46.284Z,4.85
2023-01-13T14:55:50.233Z,4.74
2023-01-13T14:57:52.807Z,4.86
2023-01-13T14:59:56.219Z,4.96
2023-01-13T15:02:00.188Z,4.88
2023-01-13T15:04:41.307Z,4.93
2023-01-13T15:06:48.166Z,5.12
2023-01-13T15:08:50.908Z,5.06
2023-01-13T15:11:01.849Z,5.07
2023-01-13T15:13:07.519Z,4.98
2023-01-13T15:15:27.612Z,5.02
2023-01-13T15:17:29.955Z,4.97
2023-01-13T15:19:32.261Z,4.90
2023-01-13T15:21:34.859Z,4.95
2023-01-13T15:23:39.910Z,4.62
2023-01-13T15:25:43.310Z,4.66
2023-01-13T15:27:50.263Z,4.73
2023-01-13T15:29:52.558Z,4.60
2023-01-13T15:31:54.879Z,4.67
2023-01-13T15:33:58.923Z,4.60
2023-01-13T15:36:02.005Z,4.65
2023-01-13T15:38:10.516Z,4.72
2023-01-13T15:40:18.075Z,4.42
2023-01-13T15:42:49.599Z,4.52
2023-01-13T15:45:10.511Z,4.66
2023-01-13T15:47:14.638Z,4.69
2023-01-13T15:49:38.491Z,4.67
2023-01-13T15:51:40.991Z,4.52
2023-01-13T15:53:43.659Z,4.69
2023-01-13T15:55:50.952Z,4.77
2023-01-13T15:57:53.451Z,4.66
2023-01-13T15:59:58.899Z,4.60
2023-01-13T16:02:01.243Z,4.78
2023-01-13T16:04:04.172Z,4.93
2023-01-13T16:06:18.074Z,4.74
2023-01-13T16:08:22.968Z,4.72
2023-01-13T16:10:28.028Z,4.85
2023-01-13T16:12:31.520Z,4.79
2023-01-13T16:14:33.790Z,4.72
2023-01-13T16:16:37.370Z,4.74
2023-01-13T16:18:39.742Z,4.84
2023-01-13T16:20:42.506Z,4.84
2023-01-13T16:22:45.485Z,4.68
2023-01-13T16:24:48.430Z,4.69
2023-01-13T16:26:50.924Z,4.84
2023-01-13T16:28:55.996Z,4.68
2023-01-13T16:30:58.406Z,4.62
2023-01-13T16:33:01.263Z,4.73
2023-01-13T16:35:04.064Z,4.67
2023-01-13T16:37:24.823Z,4.70
2023-01-13T16:39:27.942Z,4.79
2023-01-13T16:41:30.731Z,4.77
2023-01-13T16:43:33.861Z,4.81
2023-01-13T16:45:36.267Z,4.87
2023-01-13T16:47:39.851Z,4.73
2023-01-13T16:49:42.545Z,4.93
2023-01-13T16:51:44.935Z,4.92
2023-01-13T16:53:48.048Z,4.96
2023-01-13T16:55:50.433Z,4.88
2023-01-13T16:57:52.763Z,5.00
2023-01-13T16:59:55.635Z,4.92
2023-01-13T17:01:58.040Z,5.00
2023-01-13T17:04:01.242Z,4.85
2023-01-13T17:06:04.243Z,4.87
2023-01-13T17:08:06.808Z,4.93
2023-01-13T17:10:17.723Z,4.93
2023-01-13T17:12:20.774Z,4.92
2023-01-13T17:14:23.740Z,4.81
2023-01-13T17:16:27.028Z,4.77
2023-01-13T17:18:29.949Z,4.70
2023-01-13T17:20:32.456Z,4.94
2023-01-13T17:22:35.008Z,4.92
2023-01-13T17:24:37.694Z,4.80
2023-01-13T17:26:47.961Z,4.95
2023-01-13T17:28:50.467Z,4.92
2023-01-13T17:30:54.389Z,4.97
2023-01-13T17:32:56.913Z,5.00
2023-01-13T17:35:01.664Z,5.03
2023-01-13T17:37:04.733Z,4.99
2023-01-13T17:39:07.801Z,4.88
2023-01-13T17:41:10.309Z,4.89
2023-01-13T17:43:13.932Z,4.87
2023-01-13T17:45:16.852Z,4.97
2023-01-13T17:47:19.344Z,5.00
2023-01-13T17:49:24.043Z,4.84
2023-01-13T17:51:26.732Z,4.74
2023-01-13T17:53:30.734Z,4.78
2023-01-13T17:55:33.432Z,4.85
2023-01-13T17:57:36.053Z,4.91
2023-01-13T17:59:38.580Z,4.91
2023-01-13T18:01:41.727Z,4.97
2023-01-13T18:03:45.187Z,5.04
2023-01-13T18:05:50.221Z,4.98
2023-01-13T18:07:53.068Z,5.05
2023-01-13T18:09:55.916Z,5.08
2023-01-13T18:12:00.061Z,5.18
2023-01-13T18:14:03.946Z,5.21
2023-01-13T18:16:10.808Z,5.29
2023-01-13T18:18:14.254Z,5.07
2023-01-13T18:20:37.569Z,5.14
2023-01-13T18:23:01.293Z,5.23
2023-01-13T18:25:22.804Z,5.38
2023-01-13T18:27:37.082Z,5.39
2023-01-13T18:29:39.920Z,5.42
2023-01-13T18:31:42.492Z,5.17
2023-01-13T18:33:45.599Z,5.17
2023-01-13T18:35:48.726Z,5.28
2023-01-13T18:37:53.429Z,5.31
2023-01-13T18:39:55.993Z,5.40
2023-01-13T18:42:17.213Z,5.45
2023-01-13T18:44:20.031Z,5.27
2023-01-13T18:46:22.962Z,5.34
2023-01-13T18:48:26.507Z,5.14
2023-01-13T18:50:30.108Z,5.26
2023-01-13T18:52:32.808Z,5.39
2023-01-13T18:54:36.088Z,5.49
2023-01-13T18:56:39.140Z,5.53
2023-01-13T18:58:53.228Z,5.31
2023-01-13T19:01:03.969Z,5.46
2023-01-13T19:05:14.539Z,5.36
2023-01-13T19:07:23.445Z,5.46
2023-01-13T19:09:27.233Z,5.50
2023-01-13T19:11:34.064Z,5.34
2023-01-13T19:13:36.996Z,5.34
2023-01-13T19:15:39.618Z,5.51
2023-01-13T19:17:42.700Z,5.44
2023-01-13T19:19:49.366Z,5.40
2023-01-13T19:21:52.499Z,5.49
2023-01-13T19:23:56.620Z,5.55
2023-01-13T19:26:06.560Z,5.63
2023-01-13T19:28:09.386Z,5.63
2023-01-13T19:30:12.734Z,5.59
2023-01-13T19:32:16.389Z,5.57
2023-01-13T19:34:20.252Z,5.55
2023-01-13T19:36:23.213Z,5.55
2023-01-13T19:38:29.171Z,5.45
2023-01-13T19:40:32.424Z,5.53
2023-01-13T19:42:57.324Z,5.53
2023-01-13T19:45:18.997Z,5.54
2023-01-13T19:47:22.636Z,5.57
2023-01-13T19:49:25.226Z,5.57
2023-01-13T19:51:29.480Z,5.55
2023-01-13T19:53:33.335Z,5.53
2023-01-13T19:55:36.437Z,5.51
2023-01-13T19:57:40.724Z,5.26
2023-01-13T19:59:43.842Z,5.15
2023-01-13T20:01:46.330Z,5.06
2023-01-13T20:03:50.725Z,5.07
2023-01-13T20:05:54.889Z,5.17
2023-01-13T20:07:57.761Z,5.10
2023-01-13T20:10:02.299Z,4.94
2023-01-13T20:12:15.374Z,4.90
2023-01-13T20:14:19.321Z,4.84
2023-01-13T20:16:24.251Z,4.92
2023-01-13T20:18:26.931Z,5.01
2023-01-13T20:20:30.323Z,5.04
2023-01-13T20:22:34.302Z,4.98
2023-01-13T20:24:39.667Z,4.97
2023-01-13T20:26:42.811Z,5.13
2023-01-13T20:28:47.366Z,5.25
2023-01-13T20:30:51.154Z,5.17
2023-01-13T20:32:55.481Z,5.10
2023-01-13T20:34:58.932Z,5.11
2023-01-13T20:37:01.582Z,5.22
2023-01-13T20:39:06.207Z,5.34
2023-01-13T20:41:28.063Z,5.29
2023-01-13T20:43:33.456Z,5.34
2023-01-13T20:45:35.965Z,5.29
2023-01-13T20:47:38.848Z,5.37
2023-01-13T20:49:42.142Z,5.36
2023-01-13T20:51:46.625Z,5.29
2023-01-13T20:53:50.309Z,5.19
2023-01-13T20:55:53.326Z,5.26
2023-01-13T20:57:55.828Z,5.32
2023-01-13T20:59:58.953Z,5.30
2023-01-13T21:02:02.521Z,5.26
2023-01-13T21:04:07.228Z,5.21
2023-01-13T21:06:11.030Z,5.27
2023-01-13T21:08:13.535Z,5.07
2023-01-13T21:10:16.213Z,5.13
2023-01-13T21:12:37.608Z,4.92
2023-01-13T21:14:58.905Z,5.14
2023-01-13T21:17:01.780Z,5.06
2023-01-13T21:19:07.446Z,5.04
2023-01-13T21:21:13.246Z,4.94
2023-01-13T21:23:16.322Z,4.98
2023-01-13T21:25:20.034Z,4.93
2023-01-13T21:27:22.647Z,5.01
2023-01-13T21:29:25.228Z,5.12
2023-01-13T21:31:28.163Z,5.06
2023-01-13T21:33:30.845Z,4.94
2023-01-13T21:35:33.809Z,5.15
2023-01-13T21:37:37.936Z,5.04
2023-01-13T21:39:40.284Z,5.07
2023-01-13T21:42:01.163Z,5.09
2023-01-13T21:44:22.504Z,5.21
2023-01-13T21:46:51.244Z,5.29
2023-01-13T21:48:53.564Z,5.30
2023-01-13T21:51:00.296Z,5.36
2023-01-13T21:53:02.728Z,5.15
2023-01-13T21:55:20.309Z,4.98
2023-01-13T21:57:23.342Z,4.73
2023-01-13T21:59:25.673Z,4.97
2023-01-13T22:01:28.063Z,4.72
2023-01-13T22:03:50.833Z,4.78
2023-01-13T22:05:55.651Z,4.74
2023-01-13T22:07:58.391Z,4.86
2023-01-13T22:10:01.350Z,4.88
2023-01-13T22:12:03.867Z,5.00
2023-01-13T22:14:07.080Z,5.09
2023-01-13T22:16:09.783Z,5.03
2023-01-13T22:18:12.194Z,4.98
2023-01-13T22:20:14.920Z,5.10
2023-01-13T22:22:18.939Z,4.98
2023-01-13T22:24:21.347Z,4.83
2023-01-13T22:26:23.820Z,4.83
2023-01-13T22:28:34.113Z,4.66
2023-01-13T22:30:36.557Z,4.49
2023-01-13T22:32:38.943Z,4.53
2023-01-13T22:34:41.653Z,4.72
2023-01-13T22:36:43.958Z,4.87
2023-01-13T22:38:46.431Z,4.62
2023-01-13T22:40:59.331Z,4.66
2023-01-13T22:43:01.711Z,4.86
2023-01-13T22:45:05.787Z,4.78
2023-01-13T22:47:09.818Z,4.85
2023-01-13T22:49:13.428Z,4.89
2023-01-13T22:51:16.978Z,4.78
2023-01-13T22:53:20.618Z,4.92
2023-01-13T22:55:23.089Z,4.86
2023-01-13T22:57:25.361Z,4.92
2023-01-13T22:59:28.030Z,4.87
2023-01-13T23:01:33.974Z,4.88
2023-01-13T23:03:36.612Z,5.08
2023-01-13T23:05:40.663Z,5.33
2023-01-13T23:07:43.125Z,5.18
2023-01-13T23:09:45.539Z,5.01
